Jingle Bell Dash

Age Group Results

December 03, 2016


Pro-Fit Event Services LLC


Men: Top Finishers 1-11 12-15 16-19 25-29 30-34 35-39 40-44 45-49 50-54 55-59 60-64 65-69 70-99
Women: Top Finishers 1-11 12-15 16-19 20-24 25-29 30-34 35-39 40-44 45-49 50-54 55-59 60-64 65-69 70-99

5K

Top

Female Open Winners

Place Name City Bib No Age Overall Total Time Pace
1 KAILYNN DENNEY 456 11 8 23:29.4 7:35/M
Top

Male Open Winners

Place Name City Bib No Age Overall Total Time Pace
1 PASQUAL DELLA FERA 452 19 1 19:23.1 6:17/M
Top

Female 11 and Under

Place Name City Bib No Age Overall Total Time Pace
1 NATALIE PRATER 560 7 36 28:47.1 9:19/M
2 ANGEL CARR Killeen TX 430 10 85 36:33.7 11:52/M
3 GRACE WEBER 627 8 100 39:55.0 12:58/M
4 PHOEBE ROUNDS 584 9 102 40:13.3 13:04/M
5 GRACIANNA VARGAS 613 9 127 43:59.9 14:16/M
6 AUBREY MIKESKA Copperas Cove TX 533 9 130 44:23.0 14:23/M
7 Hadley Howard 641 10 135 45:48.1 14:52/M
8 CAMDEN MIELKE Kempner TX 530 11 144 48:41.8 15:46/M
9 CADENCE WEBER 625 8 156 52:07.5 16:55/M
10 CECILIA WEBER 626 6 162 52:58.2 17:11/M
11 RYLIE DENNEY Harker Heights TX 457 6 175 57:24.7 18:41/M
12 BRIAN MING 534 6 177 57:34.1 18:46/M
13 MARY KIVETT 511 9 191 1:00:52.0 19:38/M
Top

Male 11 and Under

Place Name City Bib No Age Overall Total Time Pace
1 JULIAN SANDOVAL Killeen 587 10 20 26:07.3 8:26/M
2 LEVI ROBINSON Killeen TX 575 9 22 26:13.7 8:31/M
3 JOEL JR. SECRIST Harker Heights TX 594 9 41 29:02.6 9:23/M
4 Justus Grose 882 10 54 30:56.6 10:04/M
5 DOMINICK ROBINSON Killeen TX 574 11 68 33:03.6 10:45/M
6 DUSTIN WILSON 634 8 77 34:49.8 11:25/M
7 Vijay Mata 650 7 90 38:12.4 12:28/M
8 ELIJAH PIERRE 553 10 107 40:42.7 13:10/M
9 TRIP POTVIN Killeen TX 558 8 165 54:27.1 17:41/M
Top

Female 12 to 15

Place Name City Bib No Age Overall Total Time Pace
1 BAILEY DENNEY 455 13 37 28:48.2 9:19/M
2 ELLEANA ROSEBURGH 579 15 152 50:06.9 16:20/M
3 AALYCIA ROSEBURGH Killeen TX 578 13 179 58:10.4 18:56/M
Top

Male 12 to 15

Place Name City Bib No Age Overall Total Time Pace
1 GIAN MIKEL PULIDO Killeen TX 562 13 6 22:46.9 7:22/M
2 JAMES CARR III 429 12 13 25:27.8 8:14/M
3 TURTLE POWELL 559 14 14 25:28.0 8:17/M
4 Alex Picacio Killeen TX 922 12 16 25:32.7 8:16/M
5 CHRISTIAN TURNBULL Nolanville TX 611 15 43 29:37.0 9:36/M
6 NOAH GORDON 481 14 171 55:50.9 18:06/M
7 MYKA SHINO 596 15 178 58:08.8 18:56/M
Top

Female 16 to 19

Place Name City Bib No Age Overall Total Time Pace
1 KATHRYN BLODGETT 417 16 105 40:37.8 13:14/M
2 VANESSA JAMES 503 18 138 46:28.5 15:05/M
Top

Male 16 to 19

Place Name City Bib No Age Overall Total Time Pace
1 Abel Rodriguez Killeen TX 655 16 44 29:40.7 9:35/M
2 DAKOTA GORDON 480 17 63 32:23.5 10:30/M
3 NICK WRIGHT 638 16 128 44:04.5 14:24/M
4 Aubrey Kelley 909 17 184 58:23.8 19:03/M
Top

Female 20 to 24

Place Name City Bib No Age Overall Total Time Pace
1 Sonia Nava Fort Hood TX 663 23 66 32:39.6 10:37/M
2 STEPHANIE COPSY Killeen 440 22 117 42:40.8 13:56/M
3 ALEXANDRA DAVIS 449 23 164 54:24.6 17:39/M
Top

Female 25 to 29

Place Name City Bib No Age Overall Total Time Pace
1 ERIKA FRIDDLE Harker Heights TX 466 29 9 24:11.2 7:49/M
2 KAYLA RIVERA Copperas Cove TX 572 25 23 26:17.5 8:32/M
3 ALECIA JARRETT Temple TX 504 25 27 26:55.5 8:43/M
4 NICOLE PRATER 561 28 38 28:48.5 9:20/M
5 SHERLYN SUN Killeen TX 610 26 65 32:39.1 10:36/M
6 SAMANTHA MASLAK Nolanville TX 523 25 88 37:43.7 12:17/M
7 ELIZABETH WAIT 620 28 93 38:30.1 12:30/M
8 WHITNEY FRYE 468 29 95 38:39.1 12:33/M
9 LASHAWN JENKINS Copperas Cove TX 506 26 96 39:02.5 12:37/M
10 KIRSTEN VANDYKE Temple TX 612 25 119 43:12.1 14:01/M
11 KASEY MODDE Copperas Cove TX 537 29 123 43:30.7 14:04/M
12 Callie Howard 642 29 133 45:47.1 14:52/M
Top

Male 25 to 29

Place Name City Bib No Age Overall Total Time Pace
1 XAVIER VARGAS 615 28 126 43:59.8 14:16/M
Top

Female 30 to 34

Place Name City Bib No Age Overall Total Time Pace
1 Mayra Orozco Killeen TX 651 33 30 27:24.1 8:53/M
2 CHRISTINA WRIGHT 636 33 32 27:57.0 9:04/M
3 DOROTHY SHUM 597 31 74 34:09.9 11:04/M
4 TANYA DENNEY Killeen TX 458 32 76 34:14.2 11:05/M
5 AMANDA BRINGHURST Pearland TX 418 33 103 40:35.8 13:13/M
6 LATERRA JENNIGS 507 32 121 43:13.3 14:00/M
7 ADRIANA SANDOVAL Killeen TX 586 33 125 43:49.4 14:18/M
8 HEATHER LENK Copperas Cove TX 517 32 129 44:22.8 14:23/M
9 SARAH PHILIPS 550 33 132 45:45.4 14:48/M
10 MISHIELLA HENSLEY Killeen TX 494 33 153 50:08.7 16:20/M
11 LAURA GOMEZ 479 32 161 52:57.3 17:11/M
12 JESSICA COBB Killeen TX 436 33 172 55:58.5 18:11/M
13 Lissa Buitron Killeen TX 662 30 193 1:03:42.5 20:42/M
Top

Male 30 to 34

Place Name City Bib No Age Overall Total Time Pace
1 GERALDO RIVERA Copperas Cove TX 571 30 12 25:05.2 8:08/M
2 Eugene Alexander Copperas Cove TX 658 30 17 25:40.9 8:18/M
3 CHRISTIAN RIEDENAUER 569 31 25 26:32.9 8:39/M
4 TREVOR PEARCE 548 31 26 26:35.7 8:44/M
5 DAVID WILSON 633 33 49 30:03.5 9:53/M
6 PIERRE WOODS Killeen TX 635 30 106 40:40.6 13:10/M
7 JOHN MODDE Copperas Cove TX 536 31 122 43:29.7 14:04/M
Top

Female 35 to 39

Place Name City Bib No Age Overall Total Time Pace
1 KATIE HEQUEMBOURG Killeen TX 495 38 11 24:59.5 8:07/M
2 GONUL ARSLAN-SCHNABEL Fort Hood TX 406 36 28 27:04.0 8:46/M
3 IVETTE SARIA Harker Heights TX 590 38 33 28:03.8 9:06/M
4 DANNIELLE NICHOLS Copperas Cove TX 543 35 50 30:12.1 9:53/M
5 MARGARITA ROBINSON Killeen TX 576 37 52 30:43.3 9:59/M
6 JENNIFER SMITH 603 39 56 31:22.0 10:13/M
7 TRACY LANSING Linesville PA 515 37 59 32:08.6 10:28/M
8 KERI REYNOLDS Killeen TX 563 36 60 32:11.9 10:25/M
9 Heather Hathaway Nolanville TX 914 39 70 33:28.7 10:53/M
10 ANDREA BAZER Killeen TX 410 35 78 34:51.3 11:25/M
11 BOBBI AULABAUGH 407 39 84 36:29.2 11:53/M
12 TAMIKA GARRETT Killeen TX 475 36 92 38:22.4 12:31/M
13 JENNY SCHOEL Harker Heights TX 661 38 99 39:10.5 12:48/M
14 JENNIFER ROUNDS 583 37 101 40:12.8 13:04/M
15 RAVEN KEARNEY Killeen TX 509 38 112 41:29.5 13:27/M
16 GEORGETTE MIELKE 532 39 145 48:42.0 15:46/M
17 Barbara Grose 645 38 155 50:53.2 16:31/M
18 STEPHANIE POTVIN Killeen TX 557 38 166 54:37.2 17:44/M
19 Denise Wooden Killeen TX 889 39 189 1:00:33.4 19:39/M
Top

Male 35 to 39

Place Name City Bib No Age Overall Total Time Pace
1 JONATHAN CASTILLO Harker Heights TX 432 35 3 21:31.3 6:58/M
2 Andrew Allison Killeen TX 653 35 4 22:12.3 7:11/M
3 Tyler John 660 36 10 24:23.9 7:54/M
4 JASON BLODGETT 416 39 15 25:30.5 8:20/M
5 JAMES PEARCE Killeen, Tx 76547 547 35 40 29:02.6 9:32/M
6 GREGORY WRIGHT 637 37 62 32:22.5 10:39/M
7 Victor Mata San Antonio TX 648 39 134 45:47.9 14:55/M
8 BRAD RICKS 567 38 142 47:34.2 15:29/M
9 JASON ROSEBURGH Killeen TX 580 36 143 48:41.6 15:53/M
Top

Female 40 to 44

Place Name City Bib No Age Overall Total Time Pace
1 Sofia Almaraz Killeen TX 654 42 46 29:47.4 9:45/M
2 JEANETTE SMITH 602 41 48 30:03.0 9:43/M
3 Ronny Walls 353 43 53 30:56.2 10:04/M
4 BEC DIAZ 459 44 69 33:12.3 10:46/M
5 JENNIFER STARK 605 43 87 37:07.1 12:03/M
6 Jasmine Pena San Antonio TX 649 40 89 38:07.9 12:26/M
7 Lucy Blodgett 643 43 104 40:37.3 13:14/M
8 SARAH DELOZIER Nolanville TX 454 43 111 41:24.6 13:25/M
9 RHONA HUGGINS Killeen TX 501 43 116 42:32.0 13:51/M
10 PEGGY SMITH Copperas Cove TX 604 41 146 48:45.2 15:55/M
11 Darlene Beckett Killeen TX 659 41 147 48:59.0 15:55/M
12 MJ RORICK Killeen TX 577 41 151 49:47.5 16:12/M
13 REBECCA BROCK Gatesville TX 420 44 180 58:16.1 18:51/M
14 Soubanh Manivanh Killeen TX 646 43 188 1:00:31.4 19:39/M
Top

Male 40 to 44

Place Name City Bib No Age Overall Total Time Pace
1 ANGEL MORALES Killeen TX 538 41 2 20:13.5 6:33/M
2 SHANON STARK 606 41 5 22:44.1 7:22/M
3 JON BROWN Harker Heights TX 421 43 39 28:55.0 9:21/M
4 DARRYL RIDEOUT Killeen 568 40 42 29:19.0 9:28/M
5 Pablo Picacio Killeen TX 928 40 55 31:10.1 10:06/M
6 BRIAN LOPEZ Killeen TX 519 40 97 39:06.4 12:48/M
Top

Female 45 to 49

Place Name City Bib No Age Overall Total Time Pace
1 Sonja Waddell 664 47 29 27:17.6 8:49/M
2 HOLLY LANDEZ Killeen TX 513 45 34 28:14.1 9:08/M
3 DEBORAH VAUGHN 616 49 58 31:29.4 10:15/M
4 LONNIE ELLIS 464 49 67 32:58.4 10:42/M
5 JEN WARREN Killeen TX 623 45 73 33:56.6 10:59/M
6 TAMETHA JEFFRIES 505 48 75 34:12.1 11:08/M
7 KIMBERLY GREEN 482 49 114 41:56.2 13:41/M
8 CHRISTA GRIFFITH 486 48 136 46:04.1 15:00/M
9 HERLINDA DEAN 451 47 150 49:35.7 16:08/M
10 STACEY PHILIPS 552 48 160 52:38.0 17:09/M
11 Kaya Gearhart Harker Heights TX 887 48 168 55:01.2 17:56/M
12 SHEILA COOK 439 49 170 55:31.5 18:03/M
13 CHRISTINA MAMARIL Killeen TX 520 45 173 56:36.9 18:22/M
14 VICKY BUZZARD Killeen TX 426 45 182 58:21.5 18:52/M
15 Renee Larson Killeen TX 910 47 185 58:26.7 19:03/M
16 DANA KIVETT 510 48 190 1:00:51.0 19:38/M
Top

Male 45 to 49

Place Name City Bib No Age Overall Total Time Pace
1 MICHAEL EBERS Belton TX 463 48 21 26:10.3 8:29/M
2 JOEL SECRIST 593 45 64 32:39.1 10:34/M
3 Tommy Smith Killeen TX 644 47 80 35:21.1 11:27/M
4 Alex Gearhart Harker Heights TX 886 47 169 55:08.2 17:58/M
Top

Female 50 to 54

Place Name City Bib No Age Overall Total Time Pace
1 DEBRA SANNWALDT 588 54 18 25:44.8 8:20/M
2 KIMBERLY VELARDE Killeen 617 53 45 29:42.6 9:38/M
3 DOMINGA ANDERSON 405 52 71 33:33.2 10:56/M
4 LUCY PLOECKELMANN Killeen TX 556 54 91 38:20.6 12:25/M
5 DEBBIE MORRISON 539 50 94 38:38.3 12:35/M
6 DIANA MCKINLEY Killeen TX 526 51 108 41:00.5 13:23/M
7 LUZ FRUCHEY 467 53 131 45:35.9 14:53/M
8 ANNA SAMPSON 585 54 137 46:24.8 15:06/M
9 ULRIKE WHALEN Harker Heights TX 628 51 163 53:31.3 17:27/M
10 JANE CASEY Harker Heights TX 431 52 192 1:03:41.1 20:42/M
Top

Male 50 to 54

Place Name City Bib No Age Overall Total Time Pace
1 PAT DELLA FERA Copperas Cove TX 453 52 24 26:21.0 8:32/M
2 JEFF HECKATHORN 491 53 51 30:22.0 9:55/M
3 ROGER VELARDE Killeen TX 618 51 57 31:28.1 10:12/M
4 ED KARNS Copperas Cove TX 508 52 61 32:13.5 10:26/M
5 Scott Fruchey 652 53 181 58:18.7 18:59/M
Top

Female 55 to 59

Place Name City Bib No Age Overall Total Time Pace
1 Kasey Snyder Killeen TX 657 57 72 33:35.4 10:56/M
2 REGINA SEDBERRY Killeen TX 595 59 79 34:54.9 11:21/M
3 CINDY CREBO Copperas Cove TX 441 56 109 41:00.9 13:18/M
4 JILL GUERIN Kempner TX 487 57 115 42:28.3 13:48/M
5 MARTHA NEIGHBORS Killeen TX 541 56 120 43:12.9 14:00/M
6 DIANE CRONK Harker Heights TX 444 58 140 46:46.4 15:16/M
7 PHILOMENA HILL 498 57 159 52:37.1 17:09/M
8 VIOLA MING-COPSY 535 57 174 57:18.3 18:41/M
9 BECKY BRINGHURST Copperas Cove 419 58 194 1:04:42.4 21:01/M
Top

Male 55 to 59

Place Name City Bib No Age Overall Total Time Pace
1 SCOTT ZARLEY 640 56 19 25:54.7 8:23/M
2 CRAIG NEIGHBORS 540 58 83 36:15.9 11:45/M
3 WILLIAM CRONK Harker Heights TX 445 59 139 46:46.0 15:16/M
4 CARL RINKER Harker Heights TX 570 55 176 57:34.0 18:46/M
Top

Female 60 to 64

Place Name City Bib No Age Overall Total Time Pace
1 URSULA GUMBS Killeen TX 489 62 82 36:01.2 11:39/M
2 SHARON PHILIPS 551 61 141 46:56.7 15:15/M
3 Ana Elba Diaz 656 64 183 58:23.4 19:01/M
Top

Male 60 to 64

Place Name City Bib No Age Overall Total Time Pace
1 EDWARD SANNWALDT Georgetown TX 589 60 7 22:52.2 7:24/M
2 NEAL WHITE Salado TX 630 61 35 28:37.1 9:16/M
3 ROBERT GUMBS Killeen TX 488 60 81 36:00.8 11:39/M
4 CHARLES WILSON 632 64 148 49:21.2 16:01/M
5 JOSEPH BUSTAMANTE Killeen TX 425 62 149 49:31.0 16:05/M
Top

Female 65 to 69

Place Name City Bib No Age Overall Total Time Pace
1 ANGLER WATSON 624 67 113 41:32.4 13:28/M
2 JOSEPHINE OATES Killeen 545 68 124 43:41.5 14:14/M
3 CAROL LEAR 516 67 158 52:28.2 17:00/M
4 LINDA RHOADES Harker Heights TX 566 67 167 54:47.4 17:46/M
Top

Male 65 to 69

Place Name City Bib No Age Overall Total Time Pace
1 Pete Boulette Temple TX 888 68 31 27:45.1 8:58/M
2 EARL CREBO 442 69 157 52:16.7 16:55/M
3 DON RHOADES Harker Heights TX 565 67 186 59:21.0 19:17/M
Top

Female 70 and Over

Place Name City Bib No Age Overall Total Time Pace
1 JAN WARD Kempner TX 621 71 110 41:11.1 13:19/M
2 GRETEL DAVIS Morgans Point Resort TX 450 77 118 43:05.4 13:58/M
3 Anita Eatough Belton TX 647 75 154 50:50.9 16:29/M
Top

Male 70 and Over

Place Name City Bib No Age Overall Total Time Pace
1 LUIS RIVERA 573 71 47 30:01.5 9:43/M
2 PEDRO FUENTES 469 73 86 36:52.8 12:01/M
3 TONY ALVARADO Harker Heights TX 404 72 98 39:09.8 12:42/M
4 JESS HAMILTON Harker Heights TX 490 74 187 59:23.7 19:17/M